Asheville Regional Airport (AVL)

 

Airport Diagram
Current Weather/Forecast (MVFR Conditions)
METAR KAVL 171954Z 14006KT 5SM -RA BKN055 OVC070 03/00 A3012 RMK AO2 RAE13B29 SLP208 P0001 T00330000
TAF KAVL 171739Z 1718/1818 16005KT P6SM VCSH BKN045 OVC100 TEMPO 1719/1723 4SM -RAPL OVC025 FM180300 18003KT 6SM BR VCSH BKN022 FM181000 33004KT P6SM BKN012 BKN025 FM181600 33004KT P6SM SCT250

All Charts
General
Chart Name Download
AIRPORT DIAGRAM
TAKEOFF MINIMUMS
ALTERNATE MINIMUMS

Departures
Chart Name Download
ASHEVILLE FIVE

Approaches
Chart Name Download
ILS OR LOC RWY 35
RNAV (GPS) RWY 17
RNAV (GPS) RWY 35


Inbound Traffic (Arrivals)

No inbound traffic.


Outbound Traffic (Departures)

No outbound traffic.